createdAt,value
2022-08-16T00:02:33.692Z,54.35
2022-08-16T00:05:02.494Z,55.04
2022-08-16T00:07:30.896Z,54.51
2022-08-16T00:10:00.540Z,54.18
2022-08-16T00:12:30.310Z,54.77
2022-08-16T00:15:01.191Z,54.78
2022-08-16T00:17:29.435Z,54.87
2022-08-16T00:20:20.946Z,55.02
2022-08-16T00:22:49.176Z,54.26
2022-08-16T00:26:33.582Z,54.45
2022-08-16T00:28:13.249Z,54.50
2022-08-16T00:30:41.239Z,55.21
2022-08-16T00:33:10.167Z,54.31
2022-08-16T00:35:39.336Z,54.87
2022-08-16T00:38:40.619Z,54.48
2022-08-16T00:40:57.548Z,54.49
2022-08-16T00:43:42.503Z,54.57
2022-08-16T00:46:34.156Z,54.89
2022-08-16T00:49:07.087Z,54.69
2022-08-16T00:51:46.768Z,54.90
2022-08-16T00:54:25.937Z,55.15
2022-08-16T00:57:02.418Z,54.90
2022-08-16T00:59:37.857Z,55.29
2022-08-16T01:02:30.509Z,55.26
2022-08-16T01:05:10.325Z,55.65
2022-08-16T01:07:51.323Z,55.30
2022-08-16T01:10:31.967Z,55.11
2022-08-16T01:13:12.027Z,55.41
2022-08-16T01:15:47.621Z,55.33
2022-08-16T01:18:40.678Z,55.24
2022-08-16T01:21:25.294Z,55.76
2022-08-16T01:24:52.370Z,55.31
2022-08-16T01:27:15.110Z,56.10
2022-08-16T01:29:58.136Z,55.69
2022-08-16T01:32:33.442Z,56.19
2022-08-16T01:35:16.979Z,56.61
2022-08-16T01:37:54.003Z,55.92
2022-08-16T01:40:28.822Z,56.26
2022-08-16T01:42:57.786Z,56.14
2022-08-16T01:45:39.678Z,55.76
2022-08-16T01:48:19.520Z,55.85
2022-08-16T01:51:09.204Z,55.72
2022-08-16T01:53:42.012Z,55.96
2022-08-16T01:56:29.594Z,56.07
2022-08-16T01:59:05.091Z,55.57
2022-08-16T02:01:34.701Z,55.79
2022-08-16T02:04:11.122Z,56.04
2022-08-16T02:06:46.765Z,55.87
2022-08-16T02:09:25.489Z,56.20
2022-08-16T02:12:50.187Z,56.03
2022-08-16T02:14:56.275Z,56.11
2022-08-16T02:17:25.578Z,56.10
2022-08-16T02:19:59.454Z,55.83
2022-08-16T02:22:34.908Z,56.58
2022-08-16T02:25:14.718Z,56.52
2022-08-16T02:27:50.837Z,56.52
2022-08-16T02:30:35.824Z,56.18
2022-08-16T02:33:12.873Z,56.01
2022-08-16T02:35:54.499Z,55.76
2022-08-16T02:38:31.470Z,55.93
2022-08-16T02:41:02.397Z,55.99
2022-08-16T02:43:38.042Z,55.47
2022-08-16T02:46:09.601Z,56.18
2022-08-16T02:48:39.580Z,57.25
2022-08-16T02:51:18.509Z,56.78
2022-08-16T02:53:52.303Z,58.02
2022-08-16T02:56:22.101Z,59.51
2022-08-16T02:58:53.432Z,59.87
2022-08-16T03:01:33.775Z,60.53
2022-08-16T03:04:49.915Z,60.80
2022-08-16T03:07:14.413Z,60.69
2022-08-16T03:09:46.092Z,60.31
2022-08-16T03:12:19.305Z,60.33
2022-08-16T03:14:49.747Z,59.86
2022-08-16T03:17:23.381Z,59.77
2022-08-16T03:20:04.142Z,59.77
2022-08-16T03:22:37.410Z,60.09
2022-08-16T03:25:16.035Z,61.32
2022-08-16T03:27:53.648Z,61.18
2022-08-16T03:30:29.177Z,61.06
2022-08-16T03:33:05.462Z,60.18
2022-08-16T03:35:42.047Z,60.23
2022-08-16T03:38:33.110Z,60.19
2022-08-16T03:41:25.374Z,60.03
2022-08-16T03:43:59.750Z,59.45
2022-08-16T03:46:44.961Z,59.90
2022-08-16T03:49:22.615Z,59.51
2022-08-16T03:51:56.552Z,60.20
2022-08-16T03:54:30.326Z,60.24
2022-08-16T03:56:59.041Z,60.49
2022-08-16T03:59:31.379Z,60.22
2022-08-16T04:02:12.159Z,59.74
2022-08-16T04:04:54.867Z,59.82
2022-08-16T04:07:25.117Z,59.82
2022-08-16T04:10:36.088Z,59.18
2022-08-16T04:12:54.626Z,59.54
2022-08-16T04:15:30.174Z,59.63
2022-08-16T04:18:13.133Z,60.12
2022-08-16T04:20:43.148Z,60.94
2022-08-16T04:23:11.161Z,61.23
2022-08-16T04:25:42.178Z,61.25
2022-08-16T04:28:54.319Z,61.24
2022-08-16T04:31:04.115Z,62.19
2022-08-16T04:33:51.282Z,61.76
2022-08-16T04:36:22.090Z,62.04
2022-08-16T04:38:50.251Z,62.07
2022-08-16T04:41:32.388Z,61.91
2022-08-16T04:44:02.858Z,62.06
2022-08-16T04:47:00.834Z,62.29
2022-08-16T04:49:43.751Z,62.22
2022-08-16T04:52:33.174Z,61.93
2022-08-16T04:55:07.395Z,62.24
2022-08-16T04:57:38.339Z,62.35
2022-08-16T05:00:32.512Z,62.10
2022-08-16T05:03:07.524Z,62.40
2022-08-16T05:05:58.974Z,62.00
2022-08-16T05:08:30.991Z,62.30
2022-08-16T05:11:10.339Z,61.80
2022-08-16T05:13:42.814Z,61.70
2022-08-16T05:16:21.670Z,61.60
2022-08-16T05:18:58.350Z,61.12
2022-08-16T05:21:37.994Z,61.48
2022-08-16T05:24:08.986Z,60.94
2022-08-16T05:26:40.905Z,59.83
2022-08-16T05:29:15.203Z,60.14
2022-08-16T05:31:54.199Z,59.84
2022-08-16T05:34:23.115Z,59.42
2022-08-16T05:37:00.756Z,59.57
2022-08-16T05:39:40.806Z,59.49
2022-08-16T05:42:09.873Z,59.47
2022-08-16T05:44:40.028Z,59.29
2022-08-16T05:47:15.320Z,59.42
2022-08-16T05:49:45.581Z,59.60
2022-08-16T05:52:23.336Z,59.91
2022-08-16T05:55:01.220Z,59.75
2022-08-16T05:57:34.419Z,59.58
2022-08-16T06:00:11.932Z,59.31
2022-08-16T06:02:46.345Z,59.26
2022-08-16T06:05:52.325Z,58.18
2022-08-16T06:08:31.708Z,57.96
2022-08-16T06:11:11.111Z,57.43
2022-08-16T06:13:47.323Z,56.38
2022-08-16T06:16:20.355Z,55.71
2022-08-16T06:18:52.669Z,55.18
2022-08-16T06:21:23.679Z,54.53
2022-08-16T06:24:01.464Z,53.61
2022-08-16T06:26:57.952Z,52.18
2022-08-16T06:29:30.790Z,51.86
2022-08-16T06:32:00.565Z,51.55
2022-08-16T06:34:31.691Z,50.67
2022-08-16T06:37:18.779Z,50.02
2022-08-16T06:39:50.009Z,50.00
2022-08-16T06:42:39.536Z,49.89
2022-08-16T06:45:43.354Z,48.64
2022-08-16T06:48:21.201Z,48.25
2022-08-16T06:51:03.451Z,47.45
2022-08-16T06:53:35.529Z,47.32
2022-08-16T06:56:14.728Z,47.31
2022-08-16T06:59:20.437Z,47.26
2022-08-16T07:01:58.051Z,46.73
2022-08-16T07:04:32.815Z,46.29
2022-08-16T07:07:14.537Z,45.97
2022-08-16T07:09:44.143Z,45.21
2022-08-16T07:12:15.360Z,44.81
2022-08-16T07:14:47.738Z,45.25
2022-08-16T07:17:21.579Z,44.31
2022-08-16T07:20:29.500Z,43.81
2022-08-16T07:22:52.552Z,42.92
2022-08-16T07:25:25.840Z,42.00
2022-08-16T07:27:55.049Z,42.10
2022-08-16T07:30:45.248Z,41.34
2022-08-16T07:33:53.601Z,40.39
2022-08-16T07:36:21.889Z,39.95
2022-08-16T07:38:52.141Z,39.67
2022-08-16T07:41:20.777Z,39.09
2022-08-16T07:43:55.496Z,39.20
2022-08-16T07:46:38.667Z,39.91
2022-08-16T07:49:18.157Z,40.52
2022-08-16T07:51:47.793Z,40.58
2022-08-16T07:54:21.116Z,39.67
2022-08-16T07:56:54.159Z,38.96
2022-08-16T07:59:25.957Z,38.46
2022-08-16T08:02:12.113Z,38.30
2022-08-16T08:04:41.208Z,38.46
2022-08-16T08:07:09.893Z,38.26
2022-08-16T08:09:43.432Z,36.39
2022-08-16T08:12:31.375Z,36.46
2022-08-16T08:15:05.857Z,35.40
2022-08-16T08:17:42.116Z,34.60
2022-08-16T08:20:33.721Z,33.53
2022-08-16T08:23:02.926Z,33.32
2022-08-16T08:25:54.972Z,33.59
2022-08-16T08:28:26.678Z,33.11
2022-08-16T08:31:03.619Z,33.46
2022-08-16T08:33:37.745Z,31.94
2022-08-16T08:36:22.150Z,32.34
2022-08-16T08:38:53.356Z,31.63
2022-08-16T08:41:28.721Z,31.74
2022-08-16T08:43:58.913Z,31.85
2022-08-16T08:46:35.578Z,32.05
2022-08-16T08:49:07.842Z,30.85
2022-08-16T08:51:41.846Z,31.12
2022-08-16T08:54:18.660Z,31.03
2022-08-16T08:56:52.315Z,30.88
2022-08-16T08:59:34.834Z,31.55
2022-08-16T09:02:13.029Z,31.82
2022-08-16T09:04:47.825Z,29.50
2022-08-16T09:07:54.722Z,29.75
2022-08-16T09:10:34.450Z,29.12
2022-08-16T09:13:10.980Z,29.26
2022-08-16T09:15:49.197Z,28.94
2022-08-16T09:18:26.439Z,28.30
2022-08-16T09:20:59.048Z,27.70
2022-08-16T09:23:36.486Z,27.52
2022-08-16T09:26:44.540Z,28.38
2022-08-16T09:29:14.835Z,28.12
2022-08-16T09:31:47.137Z,27.66
2022-08-16T09:34:23.202Z,27.69
2022-08-16T09:36:53.968Z,28.72
2022-08-16T09:39:22.631Z,28.21
2022-08-16T09:41:53.270Z,28.49
2022-08-16T09:45:11.504Z,28.64
2022-08-16T09:47:12.425Z,28.91
2022-08-16T09:49:41.675Z,28.36
2022-08-16T09:52:11.172Z,28.76
2022-08-16T09:54:44.562Z,27.49
2022-08-16T09:57:13.732Z,28.07
2022-08-16T09:59:42.391Z,26.69
2022-08-16T10:02:22.915Z,26.60
2022-08-16T10:04:58.597Z,27.33
2022-08-16T10:07:56.013Z,26.78
2022-08-16T10:10:18.987Z,25.64
2022-08-16T10:13:16.314Z,25.56
2022-08-16T10:15:55.201Z,26.30
2022-08-16T10:19:00.841Z,26.61
2022-08-16T10:21:17.650Z,25.96
2022-08-16T10:23:48.892Z,26.23
2022-08-16T10:27:20.517Z,25.57
2022-08-16T10:29:06.091Z,26.28
2022-08-16T10:31:43.428Z,24.82
2022-08-16T10:34:30.748Z,24.51
2022-08-16T10:37:03.391Z,25.02
2022-08-16T10:39:40.929Z,23.98
2022-08-16T10:42:10.436Z,23.29
2022-08-16T10:44:42.684Z,23.60
2022-08-16T10:47:22.372Z,23.81
2022-08-16T10:49:50.616Z,22.95
2022-08-16T10:52:20.221Z,22.60
2022-08-16T10:57:36.885Z,22.22
2022-08-16T11:00:21.071Z,21.94
2022-08-16T11:02:58.565Z,21.51
2022-08-16T11:05:58.998Z,22.71
2022-08-16T11:08:31.297Z,22.42
2022-08-16T11:11:18.370Z,22.62
2022-08-16T11:14:10.908Z,22.35
2022-08-16T11:19:25.945Z,21.69
2022-08-16T11:22:23.043Z,23.13
2022-08-16T11:25:11.471Z,23.35
2022-08-16T11:27:37.352Z,23.79
2022-08-16T11:30:12.120Z,24.61
2022-08-16T11:32:44.163Z,25.16
2022-08-16T11:35:19.047Z,24.83
2022-08-16T11:38:46.775Z,25.09
2022-08-16T11:41:01.819Z,23.50
2022-08-16T11:43:34.752Z,22.58
2022-08-16T11:46:27.864Z,22.23
2022-08-16T11:48:58.322Z,22.76
2022-08-16T11:51:26.236Z,22.60
2022-08-16T11:53:54.542Z,22.90
2022-08-16T11:56:51.607Z,23.42
2022-08-16T11:59:13.146Z,24.91
2022-08-16T12:01:44.221Z,24.74
2022-08-16T12:04:28.341Z,25.39
2022-08-16T12:06:57.281Z,26.63
2022-08-16T12:09:29.340Z,26.39
2022-08-16T12:12:02.652Z,26.57
2022-08-16T12:14:35.283Z,25.42
2022-08-16T12:17:08.760Z,25.66
2022-08-16T12:19:37.150Z,26.48
2022-08-16T12:22:18.898Z,25.40
2022-08-16T12:24:51.149Z,24.80
2022-08-16T12:27:25.375Z,23.52
2022-08-16T12:29:54.892Z,22.31
2022-08-16T12:32:39.561Z,22.81
2022-08-16T12:35:18.374Z,21.78
2022-08-16T12:37:55.479Z,21.65
2022-08-16T12:40:32.407Z,21.42
2022-08-16T12:43:07.877Z,21.52
2022-08-16T12:45:48.803Z,20.89
2022-08-16T12:48:39.517Z,20.68
2022-08-16T12:51:22.232Z,19.82
2022-08-16T12:53:56.111Z,19.20
2022-08-16T12:56:33.374Z,19.28
2022-08-16T12:59:12.601Z,19.86
2022-08-16T13:01:50.461Z,19.69
2022-08-16T13:04:20.483Z,20.55
2022-08-16T13:06:50.207Z,20.24
2022-08-16T13:09:26.866Z,20.71
2022-08-16T13:12:03.266Z,21.55
2022-08-16T13:14:38.557Z,22.61
2022-08-16T13:17:18.775Z,22.91
2022-08-16T13:20:09.274Z,23.33
2022-08-16T13:22:44.246Z,24.37
2022-08-16T13:25:21.126Z,23.09
2022-08-16T13:28:01.816Z,23.24
2022-08-16T13:30:44.900Z,24.47
2022-08-16T13:33:26.011Z,25.26
2022-08-16T13:35:59.596Z,24.56
2022-08-16T13:38:37.066Z,25.09
2022-08-16T13:41:10.933Z,24.14
2022-08-16T13:43:40.163Z,24.77
2022-08-16T13:46:10.905Z,25.33
2022-08-16T13:48:44.214Z,25.55
2022-08-16T13:51:18.069Z,26.27
2022-08-16T13:53:54.608Z,26.63
2022-08-16T13:56:37.033Z,26.48
2022-08-16T13:59:14.422Z,25.98
2022-08-16T14:01:55.284Z,25.39
2022-08-16T14:04:30.027Z,25.37
2022-08-16T14:07:01.480Z,25.03
2022-08-16T14:09:33.830Z,25.12
2022-08-16T14:12:17.786Z,26.29
2022-08-16T14:14:46.805Z,26.51
2022-08-16T14:17:18.741Z,26.20
2022-08-16T14:19:48.761Z,26.36
2022-08-16T14:22:30.327Z,26.46
2022-08-16T14:25:03.308Z,25.68
2022-08-16T14:27:38.917Z,26.44
2022-08-16T14:30:15.469Z,25.30
2022-08-16T14:32:50.969Z,25.06
2022-08-16T14:35:36.267Z,25.37
2022-08-16T14:38:11.080Z,25.49
2022-08-16T14:40:52.684Z,25.64
2022-08-16T14:43:25.706Z,26.35
2022-08-16T14:45:58.108Z,26.14
2022-08-16T14:48:27.517Z,24.86
2022-08-16T14:50:56.062Z,24.17
2022-08-16T14:53:26.390Z,24.37
2022-08-16T14:55:55.067Z,23.55
2022-08-16T14:58:34.954Z,23.78
2022-08-16T15:01:05.635Z,23.22
2022-08-16T15:03:37.557Z,23.30
2022-08-16T15:06:08.439Z,22.66
2022-08-16T15:08:40.952Z,22.17
2022-08-16T15:11:09.525Z,21.54
2022-08-16T15:13:37.395Z,21.05
2022-08-16T15:16:07.454Z,22.01
2022-08-16T15:18:36.831Z,22.14
2022-08-16T15:21:08.667Z,21.97
2022-08-16T15:23:40.382Z,22.18
2022-08-16T15:26:09.419Z,22.05
2022-08-16T15:28:38.377Z,22.16
2022-08-16T15:31:10.349Z,22.17
2022-08-16T15:33:50.122Z,21.73
2022-08-16T15:36:21.113Z,22.04
2022-08-16T15:38:56.257Z,22.60
2022-08-16T15:42:01.534Z,22.53
2022-08-16T15:44:38.915Z,23.01
2022-08-16T15:47:25.663Z,22.51
2022-08-16T15:49:56.324Z,22.26
2022-08-16T15:52:30.356Z,22.06
2022-08-16T15:55:12.634Z,21.52
2022-08-16T15:57:49.939Z,22.32
2022-08-16T16:00:20.665Z,22.14
2022-08-16T16:02:49.633Z,22.21
2022-08-16T16:05:19.777Z,22.17
2022-08-16T16:07:56.617Z,22.74
2022-08-16T16:10:37.411Z,22.55
2022-08-16T16:13:09.512Z,22.68
2022-08-16T16:15:41.123Z,23.10
2022-08-16T16:18:11.945Z,22.81
2022-08-16T16:20:47.401Z,22.86
2022-08-16T16:23:20.964Z,22.31
2022-08-16T16:25:53.063Z,22.66
2022-08-16T16:29:06.195Z,22.86
2022-08-16T16:31:19.065Z,23.00
2022-08-16T16:33:56.019Z,23.58
2022-08-16T16:36:28.742Z,23.86
2022-08-16T16:38:58.025Z,24.32
2022-08-16T16:41:28.097Z,24.12
2022-08-16T16:43:57.500Z,24.20
2022-08-16T16:46:42.846Z,23.36
2022-08-16T16:49:14.613Z,23.26
2022-08-16T16:51:47.120Z,23.68
2022-08-16T16:54:27.734Z,24.67
2022-08-16T16:56:58.217Z,25.09
2022-08-16T16:59:28.079Z,24.88
2022-08-16T17:02:39.303Z,25.28
2022-08-16T17:04:47.532Z,25.32
2022-08-16T17:07:17.656Z,26.18
2022-08-16T17:09:52.322Z,25.63
2022-08-16T17:12:25.260Z,26.21
2022-08-16T17:15:12.124Z,26.08
2022-08-16T17:18:00.288Z,26.03
2022-08-16T17:20:29.948Z,26.63
2022-08-16T17:23:00.084Z,26.60
2022-08-16T17:25:36.411Z,27.14
2022-08-16T17:28:57.813Z,27.29
2022-08-16T17:30:54.177Z,27.33
2022-08-16T17:33:22.962Z,27.18
2022-08-16T17:35:55.262Z,27.63
2022-08-16T17:38:38.987Z,28.03
2022-08-16T17:41:13.726Z,28.20
2022-08-16T17:43:44.904Z,28.67
2022-08-16T17:46:50.831Z,28.22
2022-08-16T17:49:03.813Z,28.59
2022-08-16T17:51:34.020Z,28.21
2022-08-16T17:54:03.439Z,28.73
2022-08-16T17:56:31.744Z,28.76
2022-08-16T17:58:59.605Z,29.07
2022-08-16T18:01:29.122Z,29.28
2022-08-16T18:04:07.205Z,29.09
2022-08-16T18:06:39.450Z,29.52
2022-08-16T18:09:10.420Z,29.29
2022-08-16T18:11:40.680Z,29.79
2022-08-16T18:14:11.399Z,30.17
2022-08-16T18:16:41.215Z,30.91
2022-08-16T18:19:10.599Z,30.12
2022-08-16T18:21:57.234Z,30.91
2022-08-16T18:24:29.439Z,30.93
2022-08-16T18:27:10.262Z,31.55
2022-08-16T18:29:47.843Z,31.25
2022-08-16T18:32:21.987Z,32.17
2022-08-16T18:34:54.531Z,31.90
2022-08-16T18:37:23.773Z,32.04
2022-08-16T18:39:53.190Z,32.64
2022-08-16T18:42:21.331Z,33.22
2022-08-16T18:44:49.293Z,32.80
2022-08-16T18:47:17.228Z,33.22
2022-08-16T18:49:45.370Z,33.72
2022-08-16T18:52:25.110Z,33.68
2022-08-16T18:55:02.098Z,34.60
2022-08-16T18:57:31.124Z,34.26
2022-08-16T18:59:58.986Z,34.47
2022-08-16T19:02:57.163Z,34.41
2022-08-16T19:05:22.924Z,35.19
2022-08-16T19:07:51.444Z,34.65
2022-08-16T19:10:21.446Z,34.89
2022-08-16T19:12:49.575Z,34.92
2022-08-16T19:15:23.415Z,35.12
2022-08-16T19:17:52.540Z,35.03
2022-08-16T19:20:24.367Z,35.44
2022-08-16T19:23:05.114Z,35.27
2022-08-16T19:25:48.792Z,35.31
2022-08-16T19:28:51.273Z,35.98
2022-08-16T19:31:19.079Z,36.01
2022-08-16T19:33:54.864Z,36.51
2022-08-16T19:36:31.413Z,36.42
2022-08-16T19:39:04.980Z,36.51
2022-08-16T19:41:38.415Z,36.50
2022-08-16T19:44:07.783Z,36.82
2022-08-16T19:46:37.863Z,37.09
2022-08-16T19:49:06.841Z,37.15
2022-08-16T19:51:37.596Z,37.11
2022-08-16T19:54:05.880Z,36.85
2022-08-16T19:56:35.201Z,37.31
2022-08-16T19:59:21.044Z,37.83
2022-08-16T20:01:51.880Z,37.36
2022-08-16T20:04:22.584Z,37.65
2022-08-16T20:06:52.409Z,37.73
2022-08-16T20:09:21.991Z,37.72
2022-08-16T20:11:54.988Z,37.70
2022-08-16T20:14:25.543Z,37.71
2022-08-16T20:16:57.028Z,38.25
2022-08-16T20:19:27.297Z,37.84
2022-08-16T20:21:56.813Z,38.31
2022-08-16T20:24:35.516Z,38.90
2022-08-16T20:27:09.502Z,39.14
2022-08-16T20:29:41.222Z,39.49
2022-08-16T20:32:14.250Z,39.42
2022-08-16T20:34:44.905Z,39.65
2022-08-16T20:37:15.665Z,40.33
2022-08-16T20:39:44.860Z,40.08
2022-08-16T20:42:19.056Z,40.29
2022-08-16T20:44:46.988Z,41.04
2022-08-16T20:47:15.438Z,41.26
2022-08-16T20:49:43.384Z,41.30
2022-08-16T20:52:15.609Z,41.21
2022-08-16T20:54:44.883Z,41.60
2022-08-16T20:57:16.350Z,41.34
2022-08-16T20:59:49.869Z,42.01
2022-08-16T21:02:25.150Z,42.38
2022-08-16T21:04:54.486Z,42.28
2022-08-16T21:07:22.822Z,42.87
2022-08-16T21:09:50.659Z,43.03
2022-08-16T21:12:19.947Z,42.68
2022-08-16T21:14:48.150Z,43.33
2022-08-16T21:17:16.513Z,42.89
2022-08-16T21:19:45.050Z,42.89
2022-08-16T21:22:16.826Z,43.30
2022-08-16T21:24:46.619Z,43.45
2022-08-16T21:27:14.949Z,43.35
2022-08-16T21:29:46.901Z,43.48
2022-08-16T21:32:19.722Z,43.49
2022-08-16T21:35:11.337Z,43.72
2022-08-16T21:37:40.882Z,43.78
2022-08-16T21:40:12.121Z,43.95
2022-08-16T21:42:42.540Z,44.90
2022-08-16T21:45:14.388Z,44.84
2022-08-16T21:47:43.501Z,44.55
2022-08-16T21:50:13.643Z,45.05
2022-08-16T21:52:41.480Z,45.16
2022-08-16T21:55:11.696Z,45.23
2022-08-16T21:57:39.666Z,45.53
2022-08-16T22:00:14.529Z,45.50
2022-08-16T22:02:42.554Z,45.29
2022-08-16T22:05:10.824Z,46.02
2022-08-16T22:07:38.795Z,45.46
2022-08-16T22:11:05.113Z,45.73
2022-08-16T22:12:56.730Z,46.18
2022-08-16T22:15:26.177Z,46.09
2022-08-16T22:17:57.250Z,45.82
2022-08-16T22:20:27.633Z,46.33
2022-08-16T22:23:07.850Z,46.46
2022-08-16T22:25:37.747Z,46.46
2022-08-16T22:28:06.183Z,46.65
2022-08-16T22:30:35.779Z,46.70
2022-08-16T22:33:10.217Z,46.49
2022-08-16T22:35:47.346Z,46.94
2022-08-16T22:38:53.824Z,46.76
2022-08-16T22:41:05.125Z,47.43
2022-08-16T22:43:33.276Z,47.44
2022-08-16T22:46:02.948Z,47.40
2022-08-16T22:48:32.090Z,47.68
2022-08-16T22:51:07.509Z,47.57
2022-08-16T22:53:37.341Z,47.89
2022-08-16T22:56:06.040Z,47.67
2022-08-16T22:58:37.081Z,48.12
2022-08-16T23:01:10.198Z,48.19
2022-08-16T23:03:39.181Z,48.29
2022-08-16T23:06:08.923Z,48.51
2022-08-16T23:08:40.905Z,48.59
2022-08-16T23:11:14.327Z,49.19
2022-08-16T23:13:53.266Z,49.06
2022-08-16T23:16:33.588Z,49.35
2022-08-16T23:19:04.148Z,49.26
2022-08-16T23:21:32.779Z,49.41
2022-08-16T23:24:01.710Z,50.12
2022-08-16T23:26:43.914Z,50.09
2022-08-16T23:29:24.272Z,50.15
2022-08-16T23:31:58.682Z,50.68
2022-08-16T23:34:28.747Z,50.89
2022-08-16T23:36:57.693Z,50.81
2022-08-16T23:39:25.841Z,51.39
2022-08-16T23:41:53.804Z,51.65
2022-08-16T23:44:56.518Z,52.11
2022-08-16T23:47:11.729Z,52.51
2022-08-16T23:49:56.135Z,52.59
2022-08-16T23:52:54.739Z,52.55
2022-08-16T23:55:17.389Z,52.55
2022-08-16T23:57:46.257Z,53.13
